createdAt,value
2022-12-29T00:00:18.941Z,1.88
2022-12-29T00:02:45.884Z,1.67
2022-12-29T00:05:12.774Z,1.27
2022-12-29T00:07:39.585Z,1.13
2022-12-29T00:10:07.083Z,0.47
2022-12-29T00:12:53.714Z,0.65
2022-12-29T00:15:39.049Z,0.88
2022-12-29T00:18:06.531Z,1.58
2022-12-29T00:20:56.569Z,0.68
2022-12-29T00:23:42.645Z,0.30
2022-12-29T00:26:32.835Z,0.22
2022-12-29T00:29:18.531Z,0.98
2022-12-29T00:32:03.846Z,0.30
2022-12-29T00:34:49.314Z,0.73
2022-12-29T00:37:16.766Z,0.43
2022-12-29T00:40:02.134Z,0.25
2022-12-29T00:42:47.380Z,2.25
2022-12-29T00:45:15.029Z,0.60
2022-12-29T00:47:41.716Z,0.22
2022-12-29T00:50:08.914Z,1.67
2022-12-29T00:52:35.656Z,1.08
2022-12-29T00:55:02.372Z,0.10
2022-12-29T00:57:29.101Z,0.77
2022-12-29T00:59:55.859Z,0.15
2022-12-29T01:02:22.696Z,1.10
2022-12-29T01:04:49.596Z,1.10
2022-12-29T01:07:16.798Z,0.28
2022-12-29T01:10:03.967Z,3.45
2022-12-29T01:12:42.653Z,2.17
2022-12-29T01:15:12.734Z,1.48
2022-12-29T01:17:39.546Z,0.10
2022-12-29T01:20:06.968Z,0.47
2022-12-29T01:22:34.172Z,0.43
2022-12-29T01:25:00.875Z,0.10
2022-12-29T01:27:27.584Z,0.68
2022-12-29T01:29:54.292Z,1.35
2022-12-29T01:32:22.106Z,1.02
2022-12-29T01:34:48.860Z,1.02
2022-12-29T01:37:15.666Z,0.80
2022-12-29T01:39:42.411Z,0.00
2022-12-29T01:42:20.286Z,0.47
2022-12-29T01:44:58.769Z,0.20
2022-12-29T01:47:51.381Z,0.35
2022-12-29T01:50:20.375Z,0.32
2022-12-29T01:52:59.762Z,0.52
2022-12-29T01:55:32.446Z,0.40
2022-12-29T01:58:03.397Z,0.45
2022-12-29T02:00:31.059Z,0.10
2022-12-29T02:02:58.000Z,0.20
2022-12-29T02:05:31.462Z,0.52
2022-12-29T02:07:58.741Z,2.10
2022-12-29T02:10:28.764Z,1.15
2022-12-29T02:12:57.237Z,1.35
2022-12-29T02:15:36.700Z,0.30
2022-12-29T02:18:35.111Z,0.20
2022-12-29T02:21:11.966Z,0.10
2022-12-29T02:23:51.049Z,0.25
2022-12-29T02:26:50.978Z,0.35
2022-12-29T02:30:03.049Z,1.15
2022-12-29T02:32:36.020Z,0.50
2022-12-29T02:35:18.159Z,1.02
2022-12-29T02:37:53.733Z,1.20
2022-12-29T02:40:26.782Z,0.55
2022-12-29T02:43:18.679Z,0.65
2022-12-29T02:46:19.605Z,0.30
2022-12-29T02:49:01.443Z,0.20
2022-12-29T02:51:51.526Z,0.40
2022-12-29T02:54:38.693Z,0.38
2022-12-29T02:57:30.698Z,2.53
2022-12-29T03:00:08.573Z,0.47
2022-12-29T03:02:54.244Z,0.43
2022-12-29T03:05:49.470Z,1.17
2022-12-29T03:08:43.691Z,1.25
2022-12-29T03:11:33.770Z,0.88
2022-12-29T03:14:39.447Z,0.22
2022-12-29T03:17:27.516Z,0.50
2022-12-29T03:20:00.374Z,2.33
2022-12-29T03:22:33.470Z,1.60
2022-12-29T03:25:23.536Z,1.33
2022-12-29T03:28:06.207Z,1.10
2022-12-29T03:30:41.361Z,0.17
2022-12-29T03:33:15.992Z,0.95
2022-12-29T03:35:45.209Z,0.28
2022-12-29T03:38:25.075Z,0.10
2022-12-29T03:40:56.792Z,1.38
2022-12-29T03:43:26.430Z,0.88
2022-12-29T03:45:53.303Z,1.10
2022-12-29T03:48:20.125Z,1.45
2022-12-29T03:50:48.967Z,0.00
2022-12-29T03:53:16.845Z,0.82
2022-12-29T03:55:43.760Z,0.10
2022-12-29T03:58:11.578Z,0.70
2022-12-29T04:00:51.009Z,0.10
2022-12-29T04:03:18.400Z,0.52
2022-12-29T04:05:45.449Z,1.23
2022-12-29T04:08:12.538Z,1.02
2022-12-29T04:10:39.756Z,0.43
2022-12-29T04:13:07.527Z,1.88
2022-12-29T04:15:35.645Z,1.17
2022-12-29T04:18:02.805Z,1.30
2022-12-29T04:20:47.855Z,1.75
2022-12-29T04:23:14.965Z,0.10
2022-12-29T04:25:41.825Z,0.85
2022-12-29T04:28:10.144Z,0.95
2022-12-29T04:31:09.558Z,1.67
2022-12-29T04:33:39.861Z,0.00
2022-12-29T04:36:07.426Z,0.75
2022-12-29T04:38:35.983Z,0.75
2022-12-29T04:41:05.244Z,0.98
2022-12-29T04:43:33.476Z,0.65
2022-12-29T04:46:09.817Z,0.40
2022-12-29T04:48:45.420Z,1.38
2022-12-29T04:51:38.548Z,0.35
2022-12-29T04:54:07.901Z,0.88
2022-12-29T04:56:35.524Z,0.50
2022-12-29T04:59:02.377Z,0.65
2022-12-29T05:01:29.215Z,0.20
2022-12-29T05:03:56.083Z,0.50
2022-12-29T05:06:24.171Z,0.25
2022-12-29T05:08:50.899Z,1.45
2022-12-29T05:11:18.719Z,1.75
2022-12-29T05:13:48.087Z,0.50
2022-12-29T05:16:16.853Z,1.50
2022-12-29T05:18:44.394Z,0.63
2022-12-29T05:21:11.311Z,0.68
2022-12-29T05:23:40.389Z,0.80
2022-12-29T05:26:07.230Z,0.25
2022-12-29T05:28:48.465Z,0.10
2022-12-29T05:31:19.253Z,1.25
2022-12-29T05:33:46.121Z,0.13
2022-12-29T05:36:14.257Z,0.88
2022-12-29T05:38:46.263Z,0.52
2022-12-29T05:41:13.730Z,1.08
2022-12-29T05:43:56.073Z,0.20
2022-12-29T05:46:44.682Z,0.80
2022-12-29T05:49:18.114Z,1.30
2022-12-29T05:52:42.448Z,0.22
2022-12-29T05:55:09.703Z,0.25
2022-12-29T05:57:38.083Z,1.35
2022-12-29T06:00:11.760Z,0.30
2022-12-29T06:02:47.211Z,0.55
2022-12-29T06:05:16.037Z,0.52
2022-12-29T06:07:43.227Z,0.10
2022-12-29T06:10:10.324Z,1.10
2022-12-29T06:12:50.815Z,1.00
2022-12-29T06:15:17.750Z,1.55
2022-12-29T06:17:46.056Z,1.27
2022-12-29T06:20:13.079Z,0.17
2022-12-29T06:22:40.231Z,0.10
2022-12-29T06:25:08.653Z,0.68
2022-12-29T06:27:36.288Z,2.60
2022-12-29T06:30:03.891Z,1.73
2022-12-29T06:32:30.813Z,0.57
2022-12-29T06:35:03.959Z,1.60
2022-12-29T06:37:31.197Z,0.68
2022-12-29T06:39:57.964Z,1.25
2022-12-29T06:42:30.971Z,1.17
2022-12-29T06:45:30.425Z,0.95
2022-12-29T06:47:57.386Z,0.10
2022-12-29T06:50:24.231Z,1.85
2022-12-29T06:52:50.966Z,1.75
2022-12-29T06:55:17.896Z,0.20
2022-12-29T06:57:44.681Z,0.20
2022-12-29T07:00:11.800Z,1.50
2022-12-29T07:02:38.723Z,1.05
2022-12-29T07:05:05.997Z,1.48
2022-12-29T07:07:32.761Z,2.03
2022-12-29T07:09:59.624Z,1.02
2022-12-29T07:12:26.594Z,1.53
2022-12-29T07:14:53.385Z,1.42
2022-12-29T07:17:20.270Z,0.50
2022-12-29T07:19:47.045Z,0.40
2022-12-29T07:22:13.745Z,1.00
2022-12-29T07:24:41.435Z,1.60
2022-12-29T07:27:08.218Z,1.37
2022-12-29T07:29:34.983Z,1.23
2022-12-29T07:32:01.769Z,1.00
2022-12-29T07:34:28.705Z,1.60
2022-12-29T07:36:55.441Z,2.27
2022-12-29T07:39:22.216Z,1.67
2022-12-29T07:41:49.205Z,1.67
2022-12-29T07:44:20.678Z,2.17
2022-12-29T07:46:56.513Z,1.50
2022-12-29T07:49:25.081Z,2.43
2022-12-29T07:51:52.036Z,3.40
2022-12-29T07:54:23.523Z,1.70
2022-12-29T07:56:51.364Z,0.83
2022-12-29T07:59:18.255Z,1.90
2022-12-29T08:01:45.400Z,1.60
2022-12-29T08:04:12.271Z,2.57
2022-12-29T08:06:39.352Z,3.27
2022-12-29T08:09:13.416Z,1.60
2022-12-29T08:11:44.474Z,0.67
2022-12-29T08:14:11.402Z,0.83
2022-12-29T08:16:39.220Z,0.57
2022-12-29T08:19:06.126Z,1.30
2022-12-29T08:21:33.201Z,1.13
2022-12-29T08:24:00.215Z,1.87
2022-12-29T08:26:27.121Z,0.47
2022-12-29T08:28:55.549Z,0.23
2022-12-29T08:31:23.672Z,1.47
2022-12-29T08:33:50.731Z,1.33
2022-12-29T08:36:18.120Z,1.70
2022-12-29T08:38:44.870Z,1.47
2022-12-29T08:41:11.740Z,2.13
2022-12-29T08:43:38.540Z,2.23
2022-12-29T08:46:05.372Z,1.93
2022-12-29T08:48:32.214Z,2.23
2022-12-29T08:50:59.022Z,1.87
2022-12-29T08:53:25.690Z,2.80
2022-12-29T08:56:05.163Z,1.13
2022-12-29T08:58:41.517Z,1.80
2022-12-29T09:01:10.807Z,1.60
2022-12-29T09:04:12.642Z,2.63
2022-12-29T09:06:24.988Z,1.03
2022-12-29T09:08:51.736Z,1.60
2022-12-29T09:11:24.339Z,1.90
2022-12-29T09:13:51.864Z,1.47
2022-12-29T09:16:19.240Z,9.57
2022-12-29T09:18:46.188Z,2.13
2022-12-29T09:21:14.976Z,1.43
2022-12-29T09:23:43.755Z,1.47
2022-12-29T09:26:10.911Z,0.77
2022-12-29T09:28:37.833Z,1.87
2022-12-29T09:31:05.230Z,2.33
2022-12-29T09:33:34.381Z,1.63
2022-12-29T09:36:01.427Z,1.03
2022-12-29T09:38:29.482Z,1.40
2022-12-29T09:41:09.495Z,2.33
2022-12-29T09:43:54.976Z,1.97
2022-12-29T09:46:30.690Z,1.33
2022-12-29T09:49:09.390Z,0.83
2022-12-29T09:51:39.077Z,0.80
2022-12-29T09:54:24.221Z,0.40
2022-12-29T09:56:53.159Z,0.60
2022-12-29T09:59:25.567Z,3.30
2022-12-29T10:02:07.045Z,3.57
2022-12-29T10:04:33.984Z,1.60
2022-12-29T10:07:30.673Z,1.40
2022-12-29T10:10:11.216Z,1.90
2022-12-29T10:12:53.124Z,0.83
2022-12-29T10:15:43.057Z,1.23
2022-12-29T10:18:19.642Z,0.40
2022-12-29T10:20:58.359Z,0.70
2022-12-29T10:23:30.645Z,1.53
2022-12-29T10:25:59.305Z,0.67
2022-12-29T10:28:52.015Z,1.27
2022-12-29T10:31:30.758Z,2.07
2022-12-29T10:34:02.476Z,0.60
2022-12-29T10:36:39.669Z,0.37
2022-12-29T10:39:06.296Z,1.60
2022-12-29T10:41:42.240Z,7.63
2022-12-29T10:44:14.536Z,8.93
2022-12-29T10:46:44.083Z,1.30
2022-12-29T10:49:21.568Z,0.93
2022-12-29T10:51:53.084Z,1.20
2022-12-29T10:54:28.982Z,2.07
2022-12-29T10:59:51.364Z,1.30
2022-12-29T11:02:52.322Z,0.73
2022-12-29T11:05:39.032Z,1.17
2022-12-29T11:08:11.776Z,1.33
2022-12-29T11:10:43.783Z,1.17
2022-12-29T11:13:17.798Z,0.60
2022-12-29T11:15:47.880Z,2.47
2022-12-29T11:18:34.323Z,2.23
2022-12-29T11:21:03.905Z,2.80
2022-12-29T11:23:34.615Z,4.10
2022-12-29T11:26:07.103Z,2.17
2022-12-29T11:28:34.441Z,1.50
2022-12-29T11:31:03.511Z,1.93
2022-12-29T11:33:31.123Z,0.87
2022-12-29T11:36:09.508Z,0.57
2022-12-29T11:38:40.842Z,0.93
2022-12-29T11:41:13.106Z,1.30
2022-12-29T11:43:44.521Z,1.63
2022-12-29T11:46:18.526Z,0.87
2022-12-29T11:48:47.726Z,0.80
2022-12-29T11:51:28.467Z,2.73
2022-12-29T11:54:01.947Z,2.83
2022-12-29T11:56:42.109Z,1.43
2022-12-29T11:59:37.677Z,0.73
2022-12-29T12:02:42.204Z,1.70
2022-12-29T12:05:23.750Z,1.60
2022-12-29T12:07:57.633Z,1.27
2022-12-29T12:10:31.261Z,1.10
2022-12-29T12:13:09.248Z,1.37
2022-12-29T12:15:47.446Z,1.20
2022-12-29T12:18:40.191Z,7.90
2022-12-29T12:21:17.381Z,5.20
2022-12-29T12:24:01.185Z,2.33
2022-12-29T12:26:58.001Z,1.77
2022-12-29T12:29:44.163Z,1.37
2022-12-29T12:32:16.763Z,2.03
2022-12-29T12:34:45.634Z,2.67
2022-12-29T12:37:40.270Z,1.97
2022-12-29T12:40:36.375Z,2.40
2022-12-29T12:43:34.020Z,12.77
2022-12-29T12:46:33.562Z,10.10
2022-12-29T12:49:25.551Z,3.40
2022-12-29T12:52:15.512Z,1.97
2022-12-29T12:55:19.219Z,1.87
2022-12-29T12:57:51.686Z,1.67
2022-12-29T13:00:20.669Z,1.87
2022-12-29T13:03:07.750Z,1.83
2022-12-29T13:06:08.020Z,2.13
2022-12-29T13:08:34.697Z,1.57
2022-12-29T13:11:10.503Z,2.33
2022-12-29T13:14:13.660Z,0.70
2022-12-29T13:16:58.525Z,2.43
2022-12-29T13:19:41.751Z,3.97
2022-12-29T13:22:19.808Z,2.90
2022-12-29T13:25:26.277Z,2.30
2022-12-29T13:28:01.988Z,0.97
2022-12-29T13:31:01.055Z,0.87
2022-12-29T13:33:39.721Z,0.90
2022-12-29T13:36:18.089Z,1.43
2022-12-29T13:38:49.908Z,2.87
2022-12-29T13:41:34.247Z,2.53
2022-12-29T13:44:04.693Z,1.93
2022-12-29T13:46:43.957Z,2.23
2022-12-29T13:49:21.950Z,1.07
2022-12-29T13:52:14.326Z,2.13
2022-12-29T13:55:17.012Z,2.83
2022-12-29T13:57:56.453Z,1.53
2022-12-29T14:00:25.976Z,1.43
2022-12-29T14:03:30.883Z,1.23
2022-12-29T14:06:30.252Z,2.60
2022-12-29T14:09:00.712Z,1.13
2022-12-29T14:11:39.499Z,1.20
2022-12-29T14:14:32.884Z,1.10
2022-12-29T14:17:15.285Z,0.80
2022-12-29T14:19:46.504Z,1.93
2022-12-29T14:22:13.862Z,1.90
2022-12-29T14:24:43.689Z,1.77
2022-12-29T14:27:10.448Z,2.07
2022-12-29T14:29:40.271Z,2.43
2022-12-29T14:32:22.587Z,2.23
2022-12-29T14:34:52.535Z,2.17
2022-12-29T14:37:32.026Z,2.43
2022-12-29T14:40:27.884Z,6.63
2022-12-29T14:42:58.489Z,1.10
2022-12-29T14:45:30.204Z,7.57
2022-12-29T14:47:57.765Z,1.80
2022-12-29T14:50:44.929Z,0.90
2022-12-29T14:53:44.045Z,1.10
2022-12-29T14:56:13.336Z,1.00
2022-12-29T14:59:00.926Z,1.30
2022-12-29T15:01:40.903Z,3.13
2022-12-29T15:04:16.122Z,2.60
2022-12-29T15:06:45.875Z,0.70
2022-12-29T15:09:37.476Z,0.57
2022-12-29T15:12:38.613Z,1.27
2022-12-29T15:15:25.575Z,0.60
2022-12-29T15:17:52.734Z,1.67
2022-12-29T15:20:31.464Z,1.80
2022-12-29T15:23:03.242Z,1.13
2022-12-29T15:25:31.918Z,1.30
2022-12-29T15:28:03.261Z,0.40
2022-12-29T15:30:30.145Z,2.40
2022-12-29T15:32:57.056Z,1.47
2022-12-29T15:35:53.635Z,1.43
2022-12-29T15:38:34.745Z,1.57
2022-12-29T15:41:16.487Z,1.83
2022-12-29T15:44:34.353Z,0.93
2022-12-29T15:47:06.671Z,1.53
2022-12-29T15:49:34.064Z,2.93
2022-12-29T15:52:00.931Z,2.23
2022-12-29T15:54:31.569Z,3.57
2022-12-29T15:56:58.270Z,3.17
2022-12-29T15:59:34.466Z,2.33
2022-12-29T16:02:10.117Z,3.57
2022-12-29T16:05:01.346Z,5.97
2022-12-29T16:07:37.281Z,9.93
2022-12-29T16:10:06.542Z,1.67
2022-12-29T16:12:39.339Z,1.57
2022-12-29T16:15:13.912Z,2.57
2022-12-29T16:17:53.927Z,2.80
2022-12-29T16:20:32.717Z,1.30
2022-12-29T16:23:00.923Z,1.03
2022-12-29T16:25:35.359Z,0.63
2022-12-29T16:28:04.592Z,1.40
2022-12-29T16:30:34.431Z,2.33
2022-12-29T16:33:06.566Z,2.50
2022-12-29T16:35:46.824Z,2.40
2022-12-29T16:38:15.597Z,2.77
2022-12-29T16:41:00.131Z,3.93
2022-12-29T16:43:35.212Z,1.97
2022-12-29T16:46:02.101Z,1.57
2022-12-29T16:48:32.543Z,1.00
2022-12-29T16:51:05.752Z,4.40
2022-12-29T16:53:41.488Z,3.30
2022-12-29T16:56:15.680Z,3.43
2022-12-29T16:58:49.146Z,2.00
2022-12-29T17:01:20.332Z,4.17
2022-12-29T17:03:57.888Z,5.40
2022-12-29T17:06:24.881Z,8.07
2022-12-29T17:08:52.756Z,8.83
2022-12-29T17:11:43.334Z,6.60
2022-12-29T17:14:34.606Z,5.13
2022-12-29T17:17:07.628Z,2.10
2022-12-29T17:19:37.474Z,5.10
2022-12-29T17:22:10.364Z,2.97
2022-12-29T17:24:37.201Z,1.50
2022-12-29T17:27:04.745Z,3.37
2022-12-29T17:29:36.623Z,4.07
2022-12-29T17:32:05.914Z,3.00
2022-12-29T17:34:33.816Z,1.43
2022-12-29T17:37:00.540Z,1.93
2022-12-29T17:39:27.626Z,2.83
2022-12-29T17:41:54.403Z,1.43
2022-12-29T17:44:21.863Z,2.70
2022-12-29T17:46:49.359Z,5.23
2022-12-29T17:49:18.153Z,2.60
2022-12-29T17:51:47.363Z,3.13
2022-12-29T17:54:25.946Z,2.47
2022-12-29T17:56:52.799Z,3.70
2022-12-29T17:59:19.977Z,2.33
2022-12-29T18:01:48.523Z,4.40
2022-12-29T18:04:20.173Z,5.00
2022-12-29T18:06:47.359Z,2.13
2022-12-29T18:09:14.929Z,1.57
2022-12-29T18:11:43.754Z,2.80
2022-12-29T18:14:15.313Z,1.90
2022-12-29T18:16:42.491Z,2.07
2022-12-29T18:19:09.524Z,2.67
2022-12-29T18:21:38.059Z,2.70
2022-12-29T18:24:05.322Z,1.83
2022-12-29T18:26:35.528Z,1.30
2022-12-29T18:29:02.264Z,1.13
2022-12-29T18:31:32.337Z,1.97
2022-12-29T18:34:01.839Z,1.60
2022-12-29T18:36:29.216Z,1.53
2022-12-29T18:38:56.082Z,0.53
2022-12-29T18:41:25.301Z,2.00
2022-12-29T18:43:52.241Z,1.13
2022-12-29T18:46:22.691Z,2.67
2022-12-29T18:48:53.959Z,0.43
2022-12-29T18:51:23.473Z,2.13
2022-12-29T18:53:53.772Z,1.80
2022-12-29T18:56:22.612Z,0.97
2022-12-29T18:58:50.052Z,1.33
2022-12-29T19:01:25.809Z,0.73
2022-12-29T19:03:52.875Z,1.27
2022-12-29T19:06:21.272Z,1.73
2022-12-29T19:08:48.078Z,1.57
2022-12-29T19:11:15.109Z,1.27
2022-12-29T19:13:41.815Z,1.85
2022-12-29T19:16:18.679Z,1.27
2022-12-29T19:18:50.854Z,1.77
2022-12-29T19:21:25.487Z,3.00
2022-12-29T19:23:53.186Z,2.50
2022-12-29T19:26:31.409Z,3.80
2022-12-29T19:28:59.697Z,3.30
2022-12-29T19:31:26.568Z,2.20
2022-12-29T19:33:55.122Z,1.23
2022-12-29T19:36:22.624Z,0.37
2022-12-29T19:38:49.647Z,1.10
2022-12-29T19:41:16.480Z,0.97
2022-12-29T19:43:43.337Z,1.30
2022-12-29T19:46:13.493Z,2.17
2022-12-29T19:48:41.168Z,2.57
2022-12-29T19:51:11.021Z,2.13
2022-12-29T19:53:38.179Z,3.47
2022-12-29T19:56:07.943Z,2.97
2022-12-29T19:58:36.188Z,1.83
2022-12-29T20:01:06.329Z,1.97
2022-12-29T20:03:33.876Z,3.20
2022-12-29T20:06:00.973Z,0.97
2022-12-29T20:08:27.804Z,3.37
2022-12-29T20:11:04.226Z,2.37
2022-12-29T20:13:35.657Z,3.17
2022-12-29T20:16:05.544Z,1.10
2022-12-29T20:18:32.563Z,5.53
2022-12-29T20:21:08.894Z,2.70
2022-12-29T20:23:38.815Z,1.57
2022-12-29T20:26:06.327Z,2.83
2022-12-29T20:28:33.162Z,2.07
2022-12-29T20:31:04.194Z,2.20
2022-12-29T20:33:32.188Z,2.80
2022-12-29T20:36:06.476Z,6.13
2022-12-29T20:38:33.437Z,2.97
2022-12-29T20:41:01.029Z,1.87
2022-12-29T20:43:27.870Z,2.93
2022-12-29T20:45:54.850Z,2.63
2022-12-29T20:48:21.854Z,2.30
2022-12-29T20:50:48.746Z,3.93
2022-12-29T20:53:15.480Z,2.57
2022-12-29T20:55:42.418Z,2.47
2022-12-29T20:58:25.311Z,2.53
2022-12-29T21:00:52.739Z,4.13
2022-12-29T21:03:19.754Z,1.47
2022-12-29T21:05:46.543Z,1.40
2022-12-29T21:08:13.310Z,2.13
2022-12-29T21:10:40.025Z,2.03
2022-12-29T21:13:06.805Z,3.67
2022-12-29T21:15:33.535Z,2.27
2022-12-29T21:18:01.355Z,4.50
2022-12-29T21:20:31.793Z,2.30
2022-12-29T21:23:00.784Z,2.17
2022-12-29T21:25:37.272Z,3.30
2022-12-29T21:28:08.729Z,2.53
2022-12-29T21:30:36.260Z,4.03
2022-12-29T21:33:03.354Z,4.03
2022-12-29T21:35:30.713Z,5.03
2022-12-29T21:37:57.471Z,3.97
2022-12-29T21:40:24.164Z,1.70
2022-12-29T21:42:51.130Z,2.40
2022-12-29T21:45:27.014Z,6.83
2022-12-29T21:48:13.984Z,3.87
2022-12-29T21:51:01.760Z,1.92
2022-12-29T21:53:40.571Z,3.23
2022-12-29T21:56:13.306Z,2.22
2022-12-29T21:59:03.927Z,4.30
2022-12-29T22:01:51.832Z,6.15
2022-12-29T22:04:39.749Z,4.05
2022-12-29T22:07:26.565Z,3.13
2022-12-29T22:10:11.894Z,4.27
2022-12-29T22:12:57.869Z,3.93
2022-12-29T22:15:25.891Z,5.73
2022-12-29T22:17:54.415Z,3.43
2022-12-29T22:20:25.054Z,4.57
2022-12-29T22:22:51.921Z,6.63
2022-12-29T22:25:19.226Z,9.37
2022-12-29T22:27:45.971Z,5.53
2022-12-29T22:30:13.897Z,11.43
2022-12-29T22:32:41.189Z,11.27
2022-12-29T22:35:09.704Z,9.87
2022-12-29T22:37:37.910Z,7.37
2022-12-29T22:40:05.997Z,5.40
2022-12-29T22:42:32.918Z,3.97
2022-12-29T22:44:59.647Z,1.83
2022-12-29T22:47:26.423Z,2.00
2022-12-29T22:49:53.115Z,5.93
2022-12-29T22:52:19.944Z,1.50
2022-12-29T22:54:46.727Z,2.13
2022-12-29T22:57:13.712Z,1.67
2022-12-29T22:59:40.472Z,3.57
2022-12-29T23:02:07.504Z,4.33
2022-12-29T23:05:02.342Z,1.90
2022-12-29T23:07:21.611Z,1.17
2022-12-29T23:09:48.387Z,0.80
2022-12-29T23:12:15.280Z,1.38
2022-12-29T23:14:42.000Z,2.43
2022-12-29T23:17:08.885Z,2.67
2022-12-29T23:19:35.825Z,4.27
2022-12-29T23:22:02.756Z,3.92
2022-12-29T23:24:29.497Z,1.55
2022-12-29T23:26:56.270Z,3.00
2022-12-29T23:29:23.080Z,2.20
2022-12-29T23:31:50.367Z,1.83
2022-12-29T23:34:17.643Z,2.80
2022-12-29T23:36:45.649Z,1.13
2022-12-29T23:39:19.061Z,0.88
2022-12-29T23:41:46.040Z,1.53
2022-12-29T23:44:12.742Z,2.77
2022-12-29T23:46:41.001Z,2.40
2022-12-29T23:49:09.507Z,1.30
2022-12-29T23:51:54.975Z,1.38
2022-12-29T23:54:21.685Z,1.83
2022-12-29T23:56:48.460Z,1.77
2022-12-29T23:59:15.215Z,2.07
